Минеральные Воды

СКИДКИ НА СМАРТФОНЫ!

Карта отелей и гостиниц, располагающихся рядом с аэропортом Минеральные Воды :

Минеральные Воды Ставропольский край 44° 13' 30.72" N, 43° 4' 53.76" E
Код аэродрома ИКАО
URMM
Код аэродрома RU
УРММ
Координаты
N44.22520° E043.08160°
Превышение над уровнем моря
321
Основная полоса
12L/30R
Курс магнитный
115,2/295,2
Длина основной ВПП
3910
Ширина основной ВПП
58
Покрытие основной ВПП
Твёрдое (железобетон)
Освещение ВПП
Постоянное
Тип: 
Аэродром
Класс аэродрома: 
Международный
Принадлежность: 
ГА
Статус: 
Действующий
Сайт: 
http://www.mvairport.ru/
Страна: 
Россия
Регион: 
Ставропольский край
Дополнительная информация: 
Горный. Оператор: ОАО "Международный аэропорт Минеральные Воды". Нкр.=(600)м. ДПРМ:583-"MD/MW".
Погода: 

Авиационная погода в Минеральные Воды

Регион: 
Погода METAR: 
URMM 250400Z 26006MPS 9999 NSC 12/05 Q1021 R30/090070 NOSIG RMK QFE737/0983
Время наблюдения
2022-09-25T04:00:00Z
Температура C
12.0
Точка росы
5.0
Направление ветра
260
Скорость ветра (узлы)
12
Метео видимость
6.21
Облачность
CLR
Нижняя граница облачности (футы)
Явления погоды
Условия полета
VFR
Аэропорт подробнее: 
CLR — нет облаков ниже 3000 м

Скидки на навигаторы!

Найти трансфер

С помощью этой формы Вы можете найти трансфер из аэропорта Минеральные Воды в город, аэропорт или вокзал:

Погода в аэропортах:

Авиационная погода в Белгороде

Регион: 
Погода METAR: 
UUOB 250400Z 27007G12MPS 5000 -RA BKN023 08/07 Q1007 R29/290060 NOSIG
Время наблюдения
2022-09-25T04:00:00Z
Температура C
8.0
Точка росы
7.0
Направление ветра
270
Скорость ветра (узлы)
14
Метео видимость
3.11
Облачность
BKN
Нижняя граница облачности (футы)
2300
Явления погоды
-RA
Условия полета
MVFR
Аэропорт подробнее: 
BKN – значительная (рассеянная, разорванная) облачность;
-RA - слабый дождь;

Авиационная погода в Атырау

Регион: 
Погода METAR: 
UATG 250400Z 28006MPS 5000 BR SCT033CB 12/10 Q1013 NOSIG RMK QFE761/1015
Время наблюдения
2022-09-25T04:00:00Z
Температура C
12.0
Точка росы
10.0
Направление ветра
280
Скорость ветра (узлы)
12
Метео видимость
3.11
Облачность
SCT
Нижняя граница облачности (футы)
3300
Явления погоды
BR
Условия полета
MVFR
SCT – разбросанная отдельная облачность;
BR – дымка (видимость от 1 до 9 км);

Авиационная погода в Воронеже

Регион: 
Погода METAR: 
UUOO 250400Z 24003MPS 9999 -RA OVC026 07/06 Q1004 R30/290150 NOSIG RMK QFE739
Время наблюдения
2022-09-25T04:00:00Z
Температура C
7.0
Точка росы
6.0
Направление ветра
240
Скорость ветра (узлы)
6
Метео видимость
6.21
Облачность
OVC
Нижняя граница облачности (футы)
2600
Явления погоды
-RA
Условия полета
MVFR
Аэропорт подробнее: 
OVC – сплошная облачность;
-RA - слабый дождь;

Авиационная погода в Москва - Шереметьево

Погода METAR: 
UUEE 250400Z 36003MPS 320V030 6000 -DZ OVC003 06/05 Q0997 R06R/290045 R06C/290051 NOSIG
Время наблюдения
2022-09-25T04:00:00Z
Температура C
6.0
Точка росы
5.0
Направление ветра
360
Скорость ветра (узлы)
6
Метео видимость
3.73
Облачность
OVC
Нижняя граница облачности (футы)
300
Явления погоды
-DZ
Условия полета
LIFR
Аэропорт подробнее: 
OVC – сплошная облачность;
-DZ – слабая морось;